sensor_id;sensor_type;location;lat;lon;timestamp;pressure;altitude;pressure_sealevel;temperature;humidity
44839;BME280;30576;42.098;24.876;2023-04-24T00:03:32;99604.28;;;10.97;70.47
44839;BME280;30576;42.098;24.876;2023-04-24T00:05:58;99606.06;;;10.98;69.58
44839;BME280;30576;42.098;24.876;2023-04-24T00:08:24;99605.38;;;10.86;70.04
44839;BME280;30576;42.098;24.876;2023-04-24T00:10:49;99601.78;;;10.89;69.94
44839;BME280;30576;42.098;24.876;2023-04-24T00:13:15;99606.22;;;10.88;69.81
44839;BME280;30576;42.098;24.876;2023-04-24T00:15:40;99606.09;;;10.95;69.82
44839;BME280;30576;42.098;24.876;2023-04-24T00:18:08;99610.72;;;10.83;70.29
44839;BME280;30576;42.098;24.876;2023-04-24T00:23:14;99610.91;;;10.71;70.24
44839;BME280;30576;42.098;24.876;2023-04-24T00:25:39;99617.00;;;10.74;70.47
44839;BME280;30576;42.098;24.876;2023-04-24T00:28:05;99620.41;;;10.81;70.01
44839;BME280;30576;42.098;24.876;2023-04-24T00:30:30;99618.72;;;10.79;70.18
44839;BME280;30576;42.098;24.876;2023-04-24T00:32:57;99616.81;;;10.85;69.97
44839;BME280;30576;42.098;24.876;2023-04-24T00:35:23;99614.41;;;10.71;70.10
44839;BME280;30576;42.098;24.876;2023-04-24T00:37:48;99612.78;;;10.63;70.25
44839;BME280;30576;42.098;24.876;2023-04-24T00:40:13;99611.03;;;10.65;70.74
44839;BME280;30576;42.098;24.876;2023-04-24T00:42:39;99599.91;;;10.46;70.99
44839;BME280;30576;42.098;24.876;2023-04-24T00:45:05;99599.94;;;10.44;71.45
44839;BME280;30576;42.098;24.876;2023-04-24T00:47:32;99590.00;;;10.60;70.73
44839;BME280;30576;42.098;24.876;2023-04-24T00:49:58;99599.91;;;10.46;70.97
44839;BME280;30576;42.098;24.876;2023-04-24T00:52:26;99599.06;;;10.42;71.14
44839;BME280;30576;42.098;24.876;2023-04-24T00:54:54;99604.50;;;10.33;71.29
44839;BME280;30576;42.098;24.876;2023-04-24T00:57:44;99605.72;;;10.09;71.68
44839;BME280;30576;42.098;24.876;2023-04-24T01:00:10;99610.19;;;10.00;72.60
44839;BME280;30576;42.098;24.876;2023-04-24T01:05:30;99606.34;;;10.25;71.46
44839;BME280;30576;42.098;24.876;2023-04-24T01:07:56;99604.47;;;10.31;71.42
44839;BME280;30576;42.098;24.876;2023-04-24T01:10:28;99603.97;;;10.06;72.49
44839;BME280;30576;42.098;24.876;2023-04-24T01:22:13;99599.63;;;10.02;73.77
44839;BME280;30576;42.098;24.876;2023-04-24T01:24:39;99597.00;;;10.02;73.92
44839;BME280;30576;42.098;24.876;2023-04-24T01:27:07;99603.09;;;10.07;73.87
44839;BME280;30576;42.098;24.876;2023-04-24T01:32:52;99599.47;;;10.14;72.93
44839;BME280;30576;42.098;24.876;2023-04-24T01:35:18;99597.59;;;10.23;72.18
44839;BME280;30576;42.098;24.876;2023-04-24T01:37:43;99604.06;;;10.00;73.50
44839;BME280;30576;42.098;24.876;2023-04-24T01:40:09;99608.72;;;9.81;74.02
44839;BME280;30576;42.098;24.876;2023-04-24T01:42:34;99616.50;;;9.90;74.01
44839;BME280;30576;42.098;24.876;2023-04-24T01:44:59;99617.34;;;9.92;73.70
44839;BME280;30576;42.098;24.876;2023-04-24T01:47:25;99617.22;;;10.01;73.84
44839;BME280;30576;42.098;24.876;2023-04-24T01:49:51;99622.63;;;9.91;73.91
44839;BME280;30576;42.098;24.876;2023-04-24T01:52:16;99618.16;;;9.96;73.51
44839;BME280;30576;42.098;24.876;2023-04-24T01:54:43;99615.50;;;9.99;73.42
44839;BME280;30576;42.098;24.876;2023-04-24T01:57:09;99613.94;;;9.85;73.68
44839;BME280;30576;42.098;24.876;2023-04-24T02:17:29;99599.00;;;9.84;73.65
44839;BME280;30576;42.098;24.876;2023-04-24T02:30:14;99600.03;;;9.73;73.57
44839;BME280;30576;42.098;24.876;2023-04-24T02:38:58;99595.75;;;9.67;72.92
44839;BME280;30576;42.098;24.876;2023-04-24T02:41:23;99594.97;;;9.56;72.31
44839;BME280;30576;42.098;24.876;2023-04-24T02:43:49;99586.50;;;9.32;72.74
44839;BME280;30576;42.098;24.876;2023-04-24T02:46:27;99583.28;;;9.05;73.17
44839;BME280;30576;42.098;24.876;2023-04-24T02:48:52;99582.38;;;9.08;73.44
44839;BME280;30576;42.098;24.876;2023-04-24T02:51:18;99585.97;;;9.02;73.58
44839;BME280;30576;42.098;24.876;2023-04-24T02:53:59;99588.91;;;8.68;75.84
44839;BME280;30576;42.098;24.876;2023-04-24T02:56:24;99590.59;;;8.74;75.56
44839;BME280;30576;42.098;24.876;2023-04-24T03:07:58;99590.50;;;8.83;75.68
44839;BME280;30576;42.098;24.876;2023-04-24T03:13:36;99586.06;;;8.93;75.02
44839;BME280;30576;42.098;24.876;2023-04-24T03:16:03;99593.94;;;8.93;74.16
44839;BME280;30576;42.098;24.876;2023-04-24T03:24:54;99577.13;;;9.06;73.98
44839;BME280;30576;42.098;24.876;2023-04-24T03:27:32;99584.19;;;9.01;74.04
44839;BME280;30576;42.098;24.876;2023-04-24T03:39:15;99601.88;;;8.88;74.91
44839;BME280;30576;42.098;24.876;2023-04-24T03:44:46;99591.41;;;8.82;75.14
44839;BME280;30576;42.098;24.876;2023-04-24T03:47:25;99603.56;;;8.94;74.97
44839;BME280;30576;42.098;24.876;2023-04-24T03:49:52;99607.19;;;8.84;76.06
44839;BME280;30576;42.098;24.876;2023-04-24T03:52:18;99609.75;;;8.90;77.46
44839;BME280;30576;42.098;24.876;2023-04-24T03:55:00;99607.06;;;8.96;77.26
44839;BME280;30576;42.098;24.876;2023-04-24T04:09:17;99603.28;;;9.20;76.07
44839;BME280;30576;42.098;24.876;2023-04-24T04:11:42;99598.03;;;9.20;75.83
44839;BME280;30576;42.098;24.876;2023-04-24T04:14:07;99601.69;;;9.08;76.69
44839;BME280;30576;42.098;24.876;2023-04-24T04:16:33;99600.75;;;9.11;77.11
44839;BME280;30576;42.098;24.876;2023-04-24T04:18:58;99607.53;;;9.34;76.91
44839;BME280;30576;42.098;24.876;2023-04-24T04:21:24;99618.66;;;9.59;76.83
44839;BME280;30576;42.098;24.876;2023-04-24T04:23:49;99619.31;;;9.76;76.29
44839;BME280;30576;42.098;24.876;2023-04-24T04:26:15;99627.00;;;9.93;76.85
44839;BME280;30576;42.098;24.876;2023-04-24T04:28:40;99625.03;;;10.08;76.72
44839;BME280;30576;42.098;24.876;2023-04-24T04:31:05;99626.66;;;10.19;76.19
44839;BME280;30576;42.098;24.876;2023-04-24T04:33:32;99622.81;;;10.42;74.63
44839;BME280;30576;42.098;24.876;2023-04-24T04:35:58;99621.06;;;10.43;74.04
44839;BME280;30576;42.098;24.876;2023-04-24T04:38:23;99628.09;;;10.41;74.23
44839;BME280;30576;42.098;24.876;2023-04-24T04:40:48;99624.59;;;10.40;74.15
44839;BME280;30576;42.098;24.876;2023-04-24T04:43:14;99629.09;;;10.32;74.27
44839;BME280;30576;42.098;24.876;2023-04-24T04:45:41;99628.16;;;10.37;74.17
44839;BME280;30576;42.098;24.876;2023-04-24T04:48:08;99631.34;;;10.56;73.90
44839;BME280;30576;42.098;24.876;2023-04-24T04:50:34;99634.78;;;10.65;74.11
44839;BME280;30576;42.098;24.876;2023-04-24T04:52:59;99637.13;;;10.82;74.14
44839;BME280;30576;42.098;24.876;2023-04-24T04:55:25;99624.59;;;10.93;73.92
44839;BME280;30576;42.098;24.876;2023-04-24T04:57:51;99629.59;;;11.10;73.47
44839;BME280;30576;42.098;24.876;2023-04-24T05:00:16;99620.31;;;11.36;72.73
44839;BME280;30576;42.098;24.876;2023-04-24T05:02:42;99627.88;;;11.54;71.48
44839;BME280;30576;42.098;24.876;2023-04-24T05:05:07;99627.84;;;11.56;71.35
44839;BME280;30576;42.098;24.876;2023-04-24T05:07:33;99629.41;;;11.64;70.78
44839;BME280;30576;42.098;24.876;2023-04-24T05:09:59;99630.97;;;11.75;70.30
44839;BME280;30576;42.098;24.876;2023-04-24T05:12:24;99622.69;;;11.93;69.86
44839;BME280;30576;42.098;24.876;2023-04-24T05:14:49;99625.47;;;12.26;69.05
44839;BME280;30576;42.098;24.876;2023-04-24T05:17:15;99627.38;;;12.21;68.47
44839;BME280;30576;42.098;24.876;2023-04-24T05:19:41;99617.94;;;12.08;67.75
44839;BME280;30576;42.098;24.876;2023-04-24T05:22:06;99618.59;;;11.77;69.71
44839;BME280;30576;42.098;24.876;2023-04-24T05:24:32;99622.00;;;11.83;69.83
44839;BME280;30576;42.098;24.876;2023-04-24T05:26:58;99620.31;;;12.20;69.34
44839;BME280;30576;42.098;24.876;2023-04-24T05:29:23;99612.72;;;12.05;70.27
44839;BME280;30576;42.098;24.876;2023-04-24T05:31:49;99617.34;;;11.96;70.58
44839;BME280;30576;42.098;24.876;2023-04-24T05:34:15;99601.91;;;12.15;70.21
44839;BME280;30576;42.098;24.876;2023-04-24T05:36:41;99600.41;;;12.43;69.76
44839;BME280;30576;42.098;24.876;2023-04-24T05:39:07;99604.56;;;12.89;67.73
44839;BME280;30576;42.098;24.876;2023-04-24T05:41:33;99597.38;;;12.93;68.57
44839;BME280;30576;42.098;24.876;2023-04-24T05:43:58;99595.50;;;12.98;68.21
44839;BME280;30576;42.098;24.876;2023-04-24T05:46:24;99603.81;;;13.17;67.96
44839;BME280;30576;42.098;24.876;2023-04-24T05:48:50;99602.09;;;13.49;67.33
44839;BME280;30576;42.098;24.876;2023-04-24T05:51:15;99599.91;;;13.63;66.11
44839;BME280;30576;42.098;24.876;2023-04-24T05:53:40;99589.59;;;13.84;66.19
44839;BME280;30576;42.098;24.876;2023-04-24T05:56:06;99587.72;;;13.87;65.75
44839;BME280;30576;42.098;24.876;2023-04-24T05:58:31;99595.31;;;14.28;65.51
44839;BME280;30576;42.098;24.876;2023-04-24T06:00:56;99589.00;;;14.32;63.96
44839;BME280;30576;42.098;24.876;2023-04-24T06:03:23;99585.13;;;14.14;63.25
44839;BME280;30576;42.098;24.876;2023-04-24T06:05:49;99589.59;;;14.40;63.58
44839;BME280;30576;42.098;24.876;2023-04-24T06:08:15;99591.88;;;14.53;62.70
44839;BME280;30576;42.098;24.876;2023-04-24T06:10:40;99588.25;;;14.55;62.99
44839;BME280;30576;42.098;24.876;2023-04-24T06:13:06;99587.97;;;14.64;62.50
44839;BME280;30576;42.098;24.876;2023-04-24T06:15:31;99587.56;;;14.77;62.52
44839;BME280;30576;42.098;24.876;2023-04-24T06:17:57;99595.31;;;14.55;62.87
44839;BME280;30576;42.098;24.876;2023-04-24T06:20:22;99593.69;;;15.04;62.29
44839;BME280;30576;42.098;24.876;2023-04-24T06:22:48;99591.75;;;15.34;62.78
44839;BME280;30576;42.098;24.876;2023-04-24T06:25:13;99599.41;;;15.67;61.71
44839;BME280;30576;42.098;24.876;2023-04-24T06:27:38;99600.75;;;16.03;58.92
44839;BME280;30576;42.098;24.876;2023-04-24T06:30:04;99589.38;;;16.21;57.81
44839;BME280;30576;42.098;24.876;2023-04-24T06:32:29;99586.03;;;15.69;59.58
44839;BME280;30576;42.098;24.876;2023-04-24T06:34:56;99593.66;;;15.80;59.25
44839;BME280;30576;42.098;24.876;2023-04-24T06:37:21;99594.00;;;15.69;59.73
44839;BME280;30576;42.098;24.876;2023-04-24T06:39:46;99591.78;;;15.82;59.97
44839;BME280;30576;42.098;24.876;2023-04-24T06:42:12;99587.03;;;15.66;59.15
44839;BME280;30576;42.098;24.876;2023-04-24T06:44:37;99586.13;;;15.91;58.99
44839;BME280;30576;42.098;24.876;2023-04-24T06:47:11;99592.63;;;15.84;58.30
44839;BME280;30576;42.098;24.876;2023-04-24T06:49:38;99584.53;;;16.09;57.77
44839;BME280;30576;42.098;24.876;2023-04-24T06:52:04;99586.00;;;16.60;58.07
44839;BME280;30576;42.098;24.876;2023-04-24T06:57:32;99586.34;;;17.16;56.16
44839;BME280;30576;42.098;24.876;2023-04-24T06:59:57;99585.31;;;16.99;55.00
44839;BME280;30576;42.098;24.876;2023-04-24T07:02:23;99587.75;;;16.61;54.65
44839;BME280;30576;42.098;24.876;2023-04-24T07:04:48;99593.16;;;16.38;55.62
44839;BME280;30576;42.098;24.876;2023-04-24T07:07:14;99594.13;;;16.57;55.94
44839;BME280;30576;42.098;24.876;2023-04-24T07:09:39;99586.56;;;16.69;56.56
44839;BME280;30576;42.098;24.876;2023-04-24T07:12:07;99587.63;;;16.85;55.60
44839;BME280;30576;42.098;24.876;2023-04-24T07:14:32;99594.34;;;17.16;53.49
44839;BME280;30576;42.098;24.876;2023-04-24T07:16:58;99595.09;;;17.20;53.80
44839;BME280;30576;42.098;24.876;2023-04-24T07:19:23;99596.84;;;16.78;53.89
44839;BME280;30576;42.098;24.876;2023-04-24T07:21:49;99596.09;;;16.74;55.05
44839;BME280;30576;42.098;24.876;2023-04-24T07:24:14;99598.72;;;16.54;55.41
44839;BME280;30576;42.098;24.876;2023-04-24T07:26:41;99594.56;;;16.69;54.06
44839;BME280;30576;42.098;24.876;2023-04-24T07:29:07;99594.59;;;16.89;54.18
44839;BME280;30576;42.098;24.876;2023-04-24T07:31:32;99598.22;;;17.29;52.06
44839;BME280;30576;42.098;24.876;2023-04-24T07:33:59;99593.28;;;16.77;53.24
44839;BME280;30576;42.098;24.876;2023-04-24T07:36:24;99595.28;;;17.35;53.22
44839;BME280;30576;42.098;24.876;2023-04-24T07:38:51;99592.25;;;17.43;53.56
44839;BME280;30576;42.098;24.876;2023-04-24T07:41:16;99591.53;;;18.17;51.42
44839;BME280;30576;42.098;24.876;2023-04-24T07:43:41;99587.31;;;18.67;49.29
44839;BME280;30576;42.098;24.876;2023-04-24T07:46:07;99589.75;;;18.91;50.53
44839;BME280;30576;42.098;24.876;2023-04-24T07:48:33;99590.09;;;19.36;47.44
44839;BME280;30576;42.098;24.876;2023-04-24T07:50:58;99582.97;;;19.19;48.32
44839;BME280;30576;42.098;24.876;2023-04-24T07:53:23;99583.22;;;19.14;45.72
44839;BME280;30576;42.098;24.876;2023-04-24T07:55:49;99579.03;;;19.59;48.30
44839;BME280;30576;42.098;24.876;2023-04-24T07:58:15;99577.88;;;19.47;46.08
44839;BME280;30576;42.098;24.876;2023-04-24T08:00:40;99578.25;;;19.24;48.22
44839;BME280;30576;42.098;24.876;2023-04-24T08:03:05;99572.28;;;19.52;46.89
44839;BME280;30576;42.098;24.876;2023-04-24T08:05:31;99567.09;;;19.98;47.02
44839;BME280;30576;42.098;24.876;2023-04-24T08:07:56;99572.47;;;20.30;45.46
44839;BME280;30576;42.098;24.876;2023-04-24T08:10:22;99567.25;;;20.43;43.92
44839;BME280;30576;42.098;24.876;2023-04-24T08:12:48;99568.94;;;20.60;43.80
44839;BME280;30576;42.098;24.876;2023-04-24T08:15:16;99568.94;;;20.60;43.52
44839;BME280;30576;42.098;24.876;2023-04-24T08:20:45;99549.22;;;20.15;43.18
44839;BME280;30576;42.098;24.876;2023-04-24T08:23:19;99555.91;;;20.54;43.81
44839;BME280;30576;42.098;24.876;2023-04-24T08:25:44;99555.25;;;20.50;44.36
44839;BME280;30576;42.098;24.876;2023-04-24T08:28:09;99549.47;;;20.88;42.30
44839;BME280;30576;42.098;24.876;2023-04-24T08:30:35;99543.59;;;20.82;41.78
44839;BME280;30576;42.098;24.876;2023-04-24T08:33:01;99543.47;;;20.99;43.16
44839;BME280;30576;42.098;24.876;2023-04-24T08:35:26;99535.06;;;20.75;42.01
44839;BME280;30576;42.098;24.876;2023-04-24T08:37:52;99536.09;;;20.72;42.58
44839;BME280;30576;42.098;24.876;2023-04-24T08:40:18;99533.09;;;20.63;42.21
44839;BME280;30576;42.098;24.876;2023-04-24T08:42:46;99534.91;;;20.62;42.42
44839;BME280;30576;42.098;24.876;2023-04-24T08:45:12;99525.38;;;20.72;42.78
44839;BME280;30576;42.098;24.876;2023-04-24T08:47:38;99522.50;;;20.75;41.46
44839;BME280;30576;42.098;24.876;2023-04-24T08:50:03;99524.75;;;20.83;40.92
44839;BME280;30576;42.098;24.876;2023-04-24T08:52:32;99515.88;;;21.11;42.48
44839;BME280;30576;42.098;24.876;2023-04-24T08:54:57;99514.63;;;21.17;41.28
44839;BME280;30576;42.098;24.876;2023-04-24T08:57:23;99506.47;;;20.90;42.33
44839;BME280;30576;42.098;24.876;2023-04-24T09:02:19;99494.34;;;21.56;41.98
44839;BME280;30576;42.098;24.876;2023-04-24T09:04:47;99494.03;;;21.18;43.39
44839;BME280;30576;42.098;24.876;2023-04-24T09:07:16;99492.63;;;21.12;43.74
44839;BME280;30576;42.098;24.876;2023-04-24T09:09:44;99504.75;;;21.18;40.35
44839;BME280;30576;42.098;24.876;2023-04-24T09:12:10;99489.50;;;20.89;41.52
44839;BME280;30576;42.098;24.876;2023-04-24T09:14:36;99484.94;;;21.20;42.32
44839;BME280;30576;42.098;24.876;2023-04-24T09:17:04;99483.50;;;21.43;41.56
44839;BME280;30576;42.098;24.876;2023-04-24T09:19:31;99481.88;;;21.26;42.15
44839;BME280;30576;42.098;24.876;2023-04-24T09:21:56;99486.47;;;20.96;41.92
44839;BME280;30576;42.098;24.876;2023-04-24T09:24:23;99486.06;;;20.87;42.01
44839;BME280;30576;42.098;24.876;2023-04-24T09:26:48;99489.25;;;20.94;43.81
44839;BME280;30576;42.098;24.876;2023-04-24T09:29:17;99489.13;;;20.96;43.13
44839;BME280;30576;42.098;24.876;2023-04-24T09:31:44;99478.72;;;21.20;43.83
44839;BME280;30576;42.098;24.876;2023-04-24T11:11:11;99304.09;;;20.83;48.91
44839;BME280;30576;42.098;24.876;2023-04-24T11:14:14;99351.78;;;21.75;46.72
44839;BME280;30576;42.098;24.876;2023-04-24T11:19:20;99346.84;;;21.82;47.67
44839;BME280;30576;42.098;24.876;2023-04-24T11:22:02;99318.22;;;21.95;46.07
44839;BME280;30576;42.098;24.876;2023-04-24T11:27:20;99283.88;;;21.60;45.60
44839;BME280;30576;42.098;24.876;2023-04-24T11:29:58;99274.19;;;21.31;46.75
44839;BME280;30576;42.098;24.876;2023-04-24T11:32:29;99336.88;;;21.42;45.65
44839;BME280;30576;42.098;24.876;2023-04-24T11:37:32;99284.78;;;21.74;47.37
44839;BME280;30576;42.098;24.876;2023-04-24T11:39:58;99319.25;;;22.33;47.41
44839;BME280;30576;42.098;24.876;2023-04-24T11:42:24;99262.38;;;22.26;46.74
44839;BME280;30576;42.098;24.876;2023-04-24T11:44:53;99229.03;;;21.37;47.73
44839;BME280;30576;42.098;24.876;2023-04-24T11:47:27;99276.69;;;21.46;47.99
44839;BME280;30576;42.098;24.876;2023-04-24T11:49:59;99328.22;;;22.06;48.93
44839;BME280;30576;42.098;24.876;2023-04-24T11:52:29;99314.94;;;21.90;47.28
44839;BME280;30576;42.098;24.876;2023-04-24T11:54:55;99229.88;;;21.78;47.93
44839;BME280;30576;42.098;24.876;2023-04-24T11:57:22;99268.03;;;21.83;47.28
44839;BME280;30576;42.098;24.876;2023-04-24T11:59:49;99251.03;;;21.57;46.55
44839;BME280;30576;42.098;24.876;2023-04-24T12:02:25;99255.34;;;21.85;47.29
44839;BME280;30576;42.098;24.876;2023-04-24T12:04:54;99240.13;;;21.98;47.56
44839;BME280;30576;42.098;24.876;2023-04-24T12:07:20;99205.97;;;21.88;46.79
44839;BME280;30576;42.098;24.876;2023-04-24T12:09:48;99205.94;;;22.26;49.35
44839;BME280;30576;42.098;24.876;2023-04-24T12:12:15;99204.44;;;22.35;44.76
44839;BME280;30576;42.098;24.876;2023-04-24T12:14:48;99205.00;;;22.40;45.19
44839;BME280;30576;42.098;24.876;2023-04-24T12:17:23;99202.81;;;22.45;45.01
44839;BME280;30576;42.098;24.876;2023-04-24T12:19:49;99164.19;;;22.09;44.89
44839;BME280;30576;42.098;24.876;2023-04-24T12:22:16;99207.03;;;22.24;46.18
44839;BME280;30576;42.098;24.876;2023-04-24T12:25:04;99231.88;;;22.40;45.61
44839;BME280;30576;42.098;24.876;2023-04-24T12:27:33;99129.19;;;21.85;44.47
44839;BME280;30576;42.098;24.876;2023-04-24T12:30:02;99164.28;;;21.82;44.30
44839;BME280;30576;42.098;24.876;2023-04-24T12:32:28;99148.38;;;21.92;44.11
44839;BME280;30576;42.098;24.876;2023-04-24T12:34:54;99178.25;;;22.39;44.27
44839;BME280;30576;42.098;24.876;2023-04-24T12:37:22;99157.50;;;22.41;43.59
44839;BME280;30576;42.098;24.876;2023-04-24T12:42:34;99126.81;;;22.06;45.63
44839;BME280;30576;42.098;24.876;2023-04-24T12:45:04;99091.06;;;21.80;46.36
44839;BME280;30576;42.098;24.876;2023-04-24T12:47:31;99169.63;;;22.46;47.37
44839;BME280;30576;42.098;24.876;2023-04-24T12:49:57;99124.50;;;22.63;45.82
44839;BME280;30576;42.098;24.876;2023-04-24T12:52:23;99085.81;;;22.28;44.83
44839;BME280;30576;42.098;24.876;2023-04-24T12:54:50;99116.97;;;22.44;43.09
44839;BME280;30576;42.098;24.876;2023-04-24T12:57:17;99122.59;;;22.65;44.17
44839;BME280;30576;42.098;24.876;2023-04-24T12:59:43;99119.78;;;22.66;41.68
44839;BME280;30576;42.098;24.876;2023-04-24T13:02:09;99111.47;;;22.45;44.79
44839;BME280;30576;42.098;24.876;2023-04-24T13:04:35;99112.16;;;22.23;44.18
44839;BME280;30576;42.098;24.876;2023-04-24T13:07:00;99083.06;;;22.04;42.45
44839;BME280;30576;42.098;24.876;2023-04-24T13:09:26;99132.53;;;22.76;42.48
44839;BME280;30576;42.098;24.876;2023-04-24T13:11:52;99121.47;;;22.67;42.82
44839;BME280;30576;42.098;24.876;2023-04-24T13:14:17;99061.50;;;22.67;42.00
44839;BME280;30576;42.098;24.876;2023-04-24T13:16:43;99079.72;;;22.99;43.41
44839;BME280;30576;42.098;24.876;2023-04-24T13:19:08;99100.44;;;22.61;42.35
44839;BME280;30576;42.098;24.876;2023-04-24T13:21:34;99029.13;;;22.44;42.96
44839;BME280;30576;42.098;24.876;2023-04-24T13:24:00;99125.56;;;22.97;43.81
44839;BME280;30576;42.098;24.876;2023-04-24T13:26:25;99069.63;;;22.54;42.16
44839;BME280;30576;42.098;24.876;2023-04-24T13:28:51;99095.34;;;23.18;41.22
44839;BME280;30576;42.098;24.876;2023-04-24T13:31:16;99024.13;;;22.75;40.63
44839;BME280;30576;42.098;24.876;2023-04-24T13:33:42;99048.97;;;22.79;42.55
44839;BME280;30576;42.098;24.876;2023-04-24T13:36:10;99044.00;;;22.97;42.06
44839;BME280;30576;42.098;24.876;2023-04-24T13:38:36;99011.34;;;23.14;41.16
44839;BME280;30576;42.098;24.876;2023-04-24T13:41:01;99017.22;;;22.84;42.75
44839;BME280;30576;42.098;24.876;2023-04-24T13:43:27;99036.19;;;22.34;42.99
44839;BME280;30576;42.098;24.876;2023-04-24T13:45:53;99059.63;;;22.56;42.73
44839;BME280;30576;42.098;24.876;2023-04-24T13:48:19;99063.59;;;22.75;41.59
44839;BME280;30576;42.098;24.876;2023-04-24T13:50:44;99031.09;;;22.66;43.46
44839;BME280;30576;42.098;24.876;2023-04-24T13:53:13;99061.59;;;22.89;41.94
44839;BME280;30576;42.098;24.876;2023-04-24T13:55:39;99010.91;;;22.37;40.93
44839;BME280;30576;42.098;24.876;2023-04-24T13:58:06;99037.78;;;22.24;40.77
44839;BME280;30576;42.098;24.876;2023-04-24T14:00:32;99054.69;;;22.50;40.78
44839;BME280;30576;42.098;24.876;2023-04-24T14:02:57;99048.41;;;22.98;40.21
44839;BME280;30576;42.098;24.876;2023-04-24T14:05:30;99065.88;;;23.28;40.78
44839;BME280;30576;42.098;24.876;2023-04-24T14:07:56;99026.09;;;23.09;39.49
44839;BME280;30576;42.098;24.876;2023-04-24T14:10:21;99041.09;;;23.47;38.99
44839;BME280;30576;42.098;24.876;2023-04-24T14:12:47;98999.88;;;22.99;38.60
44839;BME280;30576;42.098;24.876;2023-04-24T14:15:12;98985.16;;;23.28;37.98
44839;BME280;30576;42.098;24.876;2023-04-24T14:17:38;99036.34;;;23.84;37.88
44839;BME280;30576;42.098;24.876;2023-04-24T14:20:07;99022.13;;;23.59;38.53
44839;BME280;30576;42.098;24.876;2023-04-24T14:22:34;98989.59;;;23.51;37.87
44839;BME280;30576;42.098;24.876;2023-04-24T14:25:00;98990.41;;;23.63;37.68
44839;BME280;30576;42.098;24.876;2023-04-24T14:27:26;99014.16;;;23.58;38.50
44839;BME280;30576;42.098;24.876;2023-04-24T14:29:52;99006.94;;;23.81;38.54
44839;BME280;30576;42.098;24.876;2023-04-24T14:32:18;98997.16;;;23.69;39.58
44839;BME280;30576;42.098;24.876;2023-04-24T14:34:43;99063.25;;;24.18;37.88
44839;BME280;30576;42.098;24.876;2023-04-24T14:37:09;99004.97;;;23.49;37.50
44839;BME280;30576;42.098;24.876;2023-04-24T14:39:35;99036.56;;;23.70;37.67
44839;BME280;30576;42.098;24.876;2023-04-24T14:42:00;99000.13;;;23.54;38.28
44839;BME280;30576;42.098;24.876;2023-04-24T14:46:52;98962.84;;;23.03;39.18
44839;BME280;30576;42.098;24.876;2023-04-24T14:49:20;98983.88;;;22.98;38.89
44839;BME280;30576;42.098;24.876;2023-04-24T14:51:45;99019.09;;;23.06;38.73
44839;BME280;30576;42.098;24.876;2023-04-24T14:54:11;98984.59;;;22.53;39.92
44839;BME280;30576;42.098;24.876;2023-04-24T14:56:36;98971.38;;;22.39;40.00
44839;BME280;30576;42.098;24.876;2023-04-24T14:59:02;98987.84;;;22.69;40.23
44839;BME280;30576;42.098;24.876;2023-04-24T15:01:29;98980.47;;;22.96;39.89
44839;BME280;30576;42.098;24.876;2023-04-24T15:03:54;98978.41;;;22.64;39.69
44839;BME280;30576;42.098;24.876;2023-04-24T15:06:20;98987.84;;;22.69;39.34
44839;BME280;30576;42.098;24.876;2023-04-24T15:08:46;98954.13;;;22.77;40.56
44839;BME280;30576;42.098;24.876;2023-04-24T15:11:11;98985.91;;;22.83;39.50
44839;BME280;30576;42.098;24.876;2023-04-24T15:13:37;99013.56;;;22.96;39.34
44839;BME280;30576;42.098;24.876;2023-04-24T15:16:05;98985.47;;;22.29;38.29
44839;BME280;30576;42.098;24.876;2023-04-24T15:18:30;98965.16;;;22.25;38.69
44839;BME280;30576;42.098;24.876;2023-04-24T15:20:57;98997.06;;;22.54;39.32
44839;BME280;30576;42.098;24.876;2023-04-24T15:23:25;98966.28;;;22.58;39.95
44839;BME280;30576;42.098;24.876;2023-04-24T15:25:52;98975.63;;;22.17;39.62
44839;BME280;30576;42.098;24.876;2023-04-24T15:28:20;98994.94;;;22.22;40.97
44839;BME280;30576;42.098;24.876;2023-04-24T15:30:47;98995.53;;;22.39;40.63
44839;BME280;30576;42.098;24.876;2023-04-24T15:33:13;98954.63;;;22.22;41.04
44839;BME280;30576;42.098;24.876;2023-04-24T15:35:39;99036.47;;;22.05;40.90
44839;BME280;30576;42.098;24.876;2023-04-24T15:38:05;98961.22;;;21.57;40.29
44839;BME280;30576;42.098;24.876;2023-04-24T15:40:31;98955.19;;;21.53;39.98
44839;BME280;30576;42.098;24.876;2023-04-24T15:42:56;98978.34;;;21.67;41.08
44839;BME280;30576;42.098;24.876;2023-04-24T15:45:22;98975.59;;;21.56;41.05
44839;BME280;30576;42.098;24.876;2023-04-24T15:47:49;98956.38;;;21.62;42.02
44839;BME280;30576;42.098;24.876;2023-04-24T15:50:15;98961.22;;;21.57;42.34
44839;BME280;30576;42.098;24.876;2023-04-24T15:52:42;98932.66;;;21.30;43.09
44839;BME280;30576;42.098;24.876;2023-04-24T15:55:08;98943.41;;;20.79;45.01
44839;BME280;30576;42.098;24.876;2023-04-24T15:57:35;98917.53;;;20.52;46.03
44839;BME280;30576;42.098;24.876;2023-04-24T16:00:06;98978.50;;;20.88;45.70
44839;BME280;30576;42.098;24.876;2023-04-24T16:02:33;98925.56;;;20.39;45.99
44839;BME280;30576;42.098;24.876;2023-04-24T16:05:00;98938.81;;;20.28;46.01
44839;BME280;30576;42.098;24.876;2023-04-24T16:07:51;98958.53;;;20.27;47.03
44839;BME280;30576;42.098;24.876;2023-04-24T16:10:16;98948.38;;;20.45;47.38
44839;BME280;30576;42.098;24.876;2023-04-24T16:12:42;98932.38;;;20.30;47.73
44839;BME280;30576;42.098;24.876;2023-04-24T16:15:08;98946.00;;;20.00;51.20
44839;BME280;30576;42.098;24.876;2023-04-24T16:17:35;98931.59;;;19.74;54.45
44839;BME280;30576;42.098;24.876;2023-04-24T16:20:38;99009.78;;;19.93;60.43
44839;BME280;30576;42.098;24.876;2023-04-24T16:23:22;98924.72;;;18.99;63.24
44839;BME280;30576;42.098;24.876;2023-04-24T16:26:08;99000.25;;;19.17;63.94